Time;durP1;ratioP1;P1;durP2;ratioP2;P2;SDS_P1;SDS_P2;PMS_P1;PMS_P2;Temp;Humidity;BMP_temperature;BMP_pressure;BME280_temperature;BME280_humidity;BME280_pressure;Samples;Min_cycle;Max_cycle;Signal;HPM_P1;HPM_P2
2021/07/01 07:57:26;;;;;;;29.45;16.23;;;18.10;99.90;;;;;;12009334;28;20392;-55
2021/07/01 08:40:00;;;;;;;18.98;11.93;;;19.70;99.90;;;;;;14871647;22;1263741;-53
2021/07/01 08:46:02;;;;;;;18.98;11.98;;;20.30;99.90;;;;;;14800870;22;20107;-56
2021/07/01 08:51:50;;;;;;;24.90;11.80;;;19.80;99.90;;;;;;14831168;22;20024;-55
2021/07/01 08:57:38;;;;;;;22.67;11.65;;;19.80;99.90;;;;;;14810774;22;20481;-56
2021/07/01 09:03:30;;;;;;;19.10;11.50;;;20.10;99.90;;;;;;14864154;22;20101;-55
2021/07/01 09:09:19;;;;;;;20.38;12.70;;;20.50;99.90;;;;;;14875212;22;20074;-57
2021/07/01 09:15:10;;;;;;;15.30;11.38;;;20.50;99.90;;;;;;14875056;23;20028;-52
2021/07/01 09:20:57;;;;;;;19.27;12.38;;;20.70;99.90;;;;;;14874807;23;20095;-55
2021/07/01 09:26:57;;;;;;;19.85;12.18;;;20.70;99.90;;;;;;14865862;23;20107;-55
2021/07/01 09:32:46;;;;;;;18.92;11.82;;;21.00;99.90;;;;;;14857982;22;20035;-57
2021/07/01 09:38:35;;;;;;;15.75;11.13;;;21.30;99.90;;;;;;14841762;23;21126;-53
2021/07/01 09:44:24;;;;;;;25.35;12.10;;;21.60;99.90;;;;;;14851602;22;20372;-57
2021/07/01 09:50:13;;;;;;;17.20;12.00;;;21.90;99.90;;;;;;14853366;23;20643;-59
2021/07/01 09:56:05;;;;;;;16.10;11.20;;;21.90;99.90;;;;;;14809857;22;20074;-55
2021/07/01 10:01:52;;;;;;;19.52;11.48;;;21.90;99.90;;;;;;14815963;22;21783;-52
2021/07/01 10:07:49;;;;;;;16.38;10.60;;;21.90;99.90;;;;;;14785246;23;20100;-57
2021/07/01 10:13:36;;;;;;;16.40;10.85;;;21.90;99.90;;;;;;14843639;22;20027;-56
2021/07/01 10:19:23;;;;;;;19.42;10.73;;;21.80;99.90;;;;;;14811412;23;20091;-56
2021/07/01 10:25:12;;;;;;;16.35;11.30;;;22.20;99.90;;;;;;14769570;22;20099;-58
2021/07/01 10:31:01;;;;;;;13.82;9.52;;;22.60;99.90;;;;;;14852937;23;20099;-57
2021/07/01 10:36:48;;;;;;;17.20;10.95;;;22.70;99.90;;;;;;14821949;22;20454;-57
2021/07/01 10:42:58;;;;;;;15.23;10.82;;;22.90;99.90;;;;;;14757982;22;20020;-55
2021/07/01 10:48:55;;;;;;;17.52;10.02;;;22.70;99.80;;;;;;14778834;22;20051;-56
2021/07/01 10:54:57;;;;;;;16.50;9.77;;;22.30;99.90;;;;;;14783019;22;20369;-55
2021/07/01 11:00:46;;;;;;;16.75;9.85;;;22.00;99.90;;;;;;14823287;22;20488;-55
2021/07/01 11:06:33;;;;;;;11.98;9.27;;;22.40;99.90;;;;;;14804930;22;20105;-57
2021/07/01 11:12:23;;;;;;;18.20;10.45;;;22.70;99.90;;;;;;14803968;22;20335;-57
2021/07/01 11:18:11;;;;;;;18.67;10.18;;;22.50;99.20;;;;;;14796892;22;20478;-57
2021/07/01 11:24:16;;;;;;;12.85;10.13;;;22.50;99.90;;;;;;14782497;22;20111;-57
2021/07/01 11:30:20;;;;;;;14.02;10.13;;;22.60;98.90;;;;;;14797445;23;20047;-58
2021/07/01 11:36:19;;;;;;;15.73;9.85;;;22.50;99.60;;;;;;14853325;23;20086;-55
2021/07/01 11:42:06;;;;;;;14.95;10.40;;;22.60;99.50;;;;;;14822444;23;20038;-56
2021/07/01 11:47:54;;;;;;;14.68;10.30;;;22.80;99.90;;;;;;14837436;22;20112;-59
2021/07/01 11:53:43;;;;;;;16.27;10.70;;;22.90;99.90;;;;;;14853404;23;20035;-56
2021/07/01 11:59:31;;;;;;;14.77;11.30;;;22.70;99.80;;;;;;14854574;23;20023;-56
2021/07/01 12:05:18;;;;;;;15.75;10.43;;;22.80;99.50;;;;;;14855315;23;20028;-56
2021/07/01 12:11:07;;;;;;;17.75;10.55;;;22.90;99.60;;;;;;14853865;22;20030;-58
2021/07/01 12:16:54;;;;;;;14.50;9.95;;;23.50;98.60;;;;;;14854441;23;20107;-49
2021/07/01 12:22:48;;;;;;;14.98;9.13;;;23.90;98.20;;;;;;14854292;23;20103;-57
2021/07/01 12:28:40;;;;;;;22.10;10.70;;;24.20;96.30;;;;;;14854559;23;20024;-57
2021/07/01 12:34:27;;;;;;;17.23;9.75;;;23.70;94.80;;;;;;14855548;23;20393;-57
2021/07/01 12:40:27;;;;;;;12.90;9.80;;;23.80;96.10;;;;;;14830633;23;20024;-57
2021/07/01 12:46:57;;;;;;;12.10;9.52;;;24.10;96.80;;;;;;14820151;23;20612;-58
2021/07/01 12:52:45;;;;;;;13.13;8.43;;;24.20;94.60;;;;;;14780246;22;20074;-58
2021/07/01 12:58:32;;;;;;;12.10;8.55;;;24.40;94.80;;;;;;14752067;23;20141;-57
2021/07/01 13:04:24;;;;;;;12.98;8.88;;;24.20;95.10;;;;;;14789127;23;20024;-54
2021/07/01 13:10:12;;;;;;;14.65;7.90;;;23.90;95.10;;;;;;14825541;22;20020;-55
2021/07/01 13:16:06;;;;;;;9.65;7.97;;;24.00;95.30;;;;;;14825533;22;20024;-54
2021/07/01 13:21:56;;;;;;;13.65;8.45;;;24.30;95.90;;;;;;14850066;23;20031;-55
2021/07/01 13:27:45;;;;;;;13.10;8.50;;;24.60;95.30;;;;;;14792361;22;20100;-57
2021/07/01 13:33:32;;;;;;;11.55;7.32;;;24.80;93.00;;;;;;14823090;23;20020;-55
2021/07/01 13:39:30;;;;;;;12.35;7.80;;;25.00;93.40;;;;;;14772278;22;20208;-56
2021/07/01 13:45:18;;;;;;;8.98;7.35;;;25.00;93.00;;;;;;14784494;22;20104;-54
2021/07/01 13:51:05;;;;;;;12.98;7.30;;;25.10;92.40;;;;;;14785199;22;20104;-53
2021/07/01 13:57:01;;;;;;;11.80;6.93;;;25.20;93.20;;;;;;14785010;22;20119;-57
2021/07/01 14:02:49;;;;;;;11.73;7.25;;;25.30;92.30;;;;;;14838539;22;20111;-55
2021/07/01 14:08:37;;;;;;;9.93;7.28;;;25.50;93.40;;;;;;14800407;23;20029;-55
2021/07/01 14:14:25;;;;;;;12.55;7.57;;;25.60;90.80;;;;;;14815098;22;20561;-54
2021/07/01 14:20:13;;;;;;;7.07;6.32;;;25.60;90.90;;;;;;14806653;22;20048;-54
2021/07/01 14:26:11;;;;;;;8.75;6.30;;;25.80;91.10;;;;;;14857047;23;20100;-53
2021/07/01 14:32:01;;;;;;;10.27;7.10;;;25.90;90.70;;;;;;14856764;23;20030;-55
2021/07/01 14:38:02;;;;;;;10.40;6.82;;;25.70;90.40;;;;;;14845627;23;20024;-58
2021/07/01 14:43:55;;;;;;;8.38;6.68;;;25.70;90.90;;;;;;14825214;23;20024;-54
2021/07/01 14:49:44;;;;;;;10.30;6.30;;;26.00;90.40;;;;;;14823595;23;20028;-57
2021/07/01 14:55:37;;;;;;;9.07;6.10;;;26.30;90.40;;;;;;14827312;23;20571;-54
2021/07/01 15:01:24;;;;;;;8.90;5.37;;;26.70;88.50;;;;;;14852974;23;20138;-55
2021/07/01 15:07:17;;;;;;;7.97;6.13;;;27.10;87.20;;;;;;14855539;23;20055;-57
2021/07/01 15:13:04;;;;;;;;;;;27.10;86.00;;;;;;14770660;23;20024;-54
2021/07/01 15:18:51;;;;;;;7.10;5.60;;;26.80;86.60;;;;;;14783473;22;19939;-58
2021/07/01 15:24:40;;;;;;;7.63;5.07;;;26.90;86.30;;;;;;14782913;23;20112;-55
2021/07/01 15:30:28;;;;;;;7.03;4.80;;;26.90;83.80;;;;;;14820141;22;20103;-57
2021/07/01 15:36:15;;;;;;;6.97;5.10;;;27.00;83.10;;;;;;14839863;22;20106;-58
2021/07/01 15:42:08;;;;;;;9.55;5.80;;;27.30;82.50;;;;;;14797941;22;20094;-55
2021/07/01 15:47:57;;;;;;;;;;;28.10;80.00;;;;;;14745151;22;20035;-56
2021/07/01 15:53:44;;;;;;;6.82;5.78;;;27.70;80.70;;;;;;14750470;22;19994;-53
2021/07/01 15:59:38;;;;;;;7.43;5.82;;;27.10;81.70;;;;;;14781721;22;20025;-55
2021/07/01 16:05:25;;;;;;;5.97;4.97;;;26.70;85.30;;;;;;14781177;22;20035;-56
2021/07/01 16:11:12;;;;;;;9.10;5.72;;;26.50;83.70;;;;;;14782945;22;20027;-57
2021/07/01 16:17:00;;;;;;;6.03;5.32;;;26.20;85.80;;;;;;14782857;22;20030;-56
2021/07/01 16:22:48;;;;;;;9.15;5.57;;;27.10;86.40;;;;;;14781583;22;20100;-54
2021/07/01 16:28:36;;;;;;;8.23;5.68;;;27.40;82.80;;;;;;14820990;23;20028;-59
2021/07/01 16:34:24;;;;;;;9.95;6.25;;;27.60;79.60;;;;;;14820827;23;20108;-57
2021/07/01 16:40:13;;;;;;;10.07;6.53;;;27.00;79.50;;;;;;14800194;22;20030;-57
2021/07/01 16:46:03;;;;;;;7.20;6.05;;;26.50;82.50;;;;;;14747732;23;20107;-57
2021/07/01 16:51:53;;;;;;;7.82;5.70;;;26.20;85.00;;;;;;14824650;22;20060;-53
2021/07/01 16:57:40;;;;;;;14.35;6.03;;;27.00;84.90;;;;;;14786406;22;20359;-56
2021/07/01 17:03:29;;;;;;;7.90;5.93;;;29.90;74.90;;;;;;14786563;22;20020;-55
2021/07/01 17:09:19;;;;;;;7.55;6.40;;;29.20;74.00;;;;;;14786427;22;20103;-55
2021/07/01 17:15:07;;;;;;;8.10;6.45;;;27.90;76.10;;;;;;14803922;23;20024;-57
2021/07/01 17:20:55;;;;;;;10.68;6.03;;;27.70;77.90;;;;;;14817908;23;20028;-58
2021/07/01 17:26:45;;;;;;;13.98;6.63;;;28.10;78.90;;;;;;14804176;22;20078;-53
2021/07/01 17:32:34;;;;;;;11.40;6.47;;;30.20;70.80;;;;;;14795631;22;20043;-52
2021/07/01 17:38:22;;;;;;;12.63;5.95;;;31.60;65.20;;;;;;14795521;22;20512;-53
2021/07/01 17:44:11;;;;;;;10.15;5.50;;;31.40;64.60;;;;;;14795512;22;20028;-57
2021/07/01 17:50:00;;;;;;;11.45;6.10;;;32.30;60.30;;;;;;14765930;23;20020;-54
2021/07/01 17:55:47;;;;;;;5.72;5.05;;;32.60;59.50;;;;;;14820479;22;20098;-53
2021/07/01 18:01:35;;;;;;;7.22;5.70;;;33.50;58.60;;;;;;14856763;23;20016;-56
2021/07/01 18:07:22;;;;;;;7.88;6.05;;;32.10;59.10;;;;;;14824952;22;20110;-56
2021/07/01 18:13:09;;;;;;;7.97;6.40;;;30.20;63.60;;;;;;14785690;23;20031;-56
2021/07/01 18:18:59;;;;;;;7.75;6.80;;;28.60;69.10;;;;;;14784576;23;20075;-56
2021/07/01 18:24:46;;;;;;;10.65;6.30;;;28.00;72.70;;;;;;14822665;23;20079;-55
2021/07/01 18:30:35;;;;;;;6.00;5.43;;;29.70;68.90;;;;;;14785239;22;20103;-58
2021/07/01 18:36:24;;;;;;;10.48;6.03;;;31.40;62.80;;;;;;14782253;22;20031;-59
2021/07/01 18:42:11;;;;;;;9.48;6.25;;;32.00;59.70;;;;;;14772948;23;20028;-56
2021/07/01 18:47:59;;;;;;;10.82;6.65;;;31.50;61.50;;;;;;14784143;23;20056;-56
2021/07/01 18:53:47;;;;;;;9.65;7.05;;;29.80;64.70;;;;;;14784175;23;20020;-57
2021/07/01 18:59:34;;;;;;;11.82;7.18;;;29.30;68.00;;;;;;14833846;23;20353;-58
2021/07/01 19:05:21;;;;;;;8.65;6.43;;;28.90;68.80;;;;;;14782291;22;20024;-58
2021/07/01 19:11:15;;;;;;;10.02;7.35;;;28.40;70.90;;;;;;14856632;23;20044;-58
2021/07/01 19:17:06;;;;;;;10.38;7.68;;;28.10;72.40;;;;;;14856419;23;20099;-57
2021/07/01 19:22:53;;;;;;;16.85;7.95;;;27.40;75.10;;;;;;14856217;23;20047;-52
2021/07/01 19:28:42;;;;;;;12.93;8.35;;;26.70;77.60;;;;;;14855332;23;20028;-56
2021/07/01 19:34:29;;;;;;;11.70;7.82;;;26.30;79.80;;;;;;14858169;23;20051;-54
2021/07/01 19:40:16;;;;;;;14.77;8.50;;;25.70;84.40;;;;;;14842937;23;20492;-55
2021/07/01 19:46:07;;;;;;;11.68;7.90;;;25.40;86.90;;;;;;14855390;23;20024;-56
2021/07/01 19:51:55;;;;;;;12.63;7.70;;;25.00;89.10;;;;;;14854452;22;20020;-56
2021/07/01 19:57:45;;;;;;;17.17;8.63;;;24.70;90.60;;;;;;14855349;23;20020;-54
2021/07/01 20:03:34;;;;;;;12.27;8.60;;;24.50;91.60;;;;;;14853918;23;20099;-55
2021/07/01 20:09:22;;;;;;;11.10;9.10;;;24.40;92.30;;;;;;14855059;22;20024;-55
2021/07/01 20:15:10;;;;;;;14.45;9.65;;;24.10;92.90;;;;;;14855650;23;20032;-55
2021/07/01 20:20:58;;;;;;;16.50;10.55;;;24.00;93.70;;;;;;14827583;22;20095;-56
2021/07/01 20:26:45;;;;;;;13.77;11.13;;;23.70;94.40;;;;;;14854927;23;20048;-52
2021/07/01 20:32:33;;;;;;;13.50;11.30;;;23.60;95.20;;;;;;14839388;22;20429;-55
2021/07/01 20:38:21;;;;;;;20.35;11.77;;;23.50;95.60;;;;;;14844257;23;20086;-56
2021/07/01 20:44:08;;;;;;;18.73;11.70;;;23.50;96.40;;;;;;14828942;23;20487;-52
2021/07/01 20:49:55;;;;;;;18.40;12.50;;;23.30;97.00;;;;;;14854535;23;20026;-49
2021/07/01 20:55:43;;;;;;;15.25;12.02;;;23.30;97.20;;;;;;14854474;23;20099;-50
2021/07/01 21:01:31;;;;;;;19.30;12.52;;;23.20;97.70;;;;;;14856636;23;20026;-55
2021/07/01 21:07:23;;;;;;;17.45;12.77;;;23.20;97.90;;;;;;14816736;22;20044;-51
2021/07/01 21:13:11;;;;;;;21.20;12.25;;;23.10;98.20;;;;;;14847992;22;20496;-48
2021/07/01 21:18:59;;;;;;;22.83;13.68;;;22.90;98.80;;;;;;14765311;22;20043;-51
2021/07/01 21:24:46;;;;;;;16.48;13.05;;;22.90;99.60;;;;;;14814030;22;20027;-49
2021/07/01 21:30:34;;;;;;;16.60;13.02;;;22.70;99.90;;;;;;14820352;22;20043;-51
2021/07/01 21:36:23;;;;;;;19.27;13.52;;;22.70;99.90;;;;;;14793995;22;20039;-50
2021/07/01 21:42:10;;;;;;;16.05;12.25;;;22.70;99.90;;;;;;14810442;22;20020;-51
2021/07/01 21:47:59;;;;;;;16.33;13.23;;;22.70;99.90;;;;;;14805647;23;20024;-49
2021/07/01 21:53:50;;;;;;;17.92;13.52;;;22.70;99.90;;;;;;14842981;22;20082;-54
2021/07/01 21:59:38;;;;;;;19.17;13.20;;;22.70;99.90;;;;;;14785370;22;20362;-54
2021/07/01 22:05:27;;;;;;;21.63;13.75;;;22.70;99.90;;;;;;14832863;23;20024;-50
2021/07/01 22:11:14;;;;;;;17.20;13.15;;;22.60;99.90;;;;;;14857010;23;20024;-53
2021/07/01 22:17:02;;;;;;;16.42;12.70;;;22.60;99.90;;;;;;14850912;22;20017;-49
2021/07/01 22:22:51;;;;;;;18.38;13.15;;;22.70;99.90;;;;;;14789993;23;20020;-51
2021/07/01 22:28:40;;;;;;;23.65;12.98;;;22.70;99.90;;;;;;14856311;23;20024;-51
2021/07/01 22:34:29;;;;;;;16.45;13.02;;;22.60;99.90;;;;;;14787282;22;20025;-52
2021/07/01 22:40:18;;;;;;;18.65;13.10;;;22.60;99.90;;;;;;14755058;22;20240;-49
2021/07/01 22:46:07;;;;;;;16.45;13.05;;;22.60;99.90;;;;;;14790864;22;20028;-49
2021/07/01 22:51:54;;;;;;;17.88;13.13;;;22.60;99.90;;;;;;14851684;22;20066;-55
2021/07/01 22:57:43;;;;;;;20.83;13.20;;;22.60;99.90;;;;;;14856092;22;20026;-55
2021/07/01 23:03:30;;;;;;;21.48;13.52;;;22.60;99.90;;;;;;14856895;23;20040;-56
2021/07/01 23:09:19;;;;;;;17.00;13.30;;;22.60;99.90;;;;;;14856602;22;20055;-50
2021/07/01 23:15:09;;;;;;;17.00;13.15;;;22.50;99.90;;;;;;14855519;23;20365;-51
2021/07/01 23:21:04;;;;;;;23.35;14.73;;;22.40;99.90;;;;;;14856789;23;20111;-53
2021/07/01 23:26:51;;;;;;;18.67;13.73;;;22.30;99.90;;;;;;14855912;23;20322;-54
2021/07/01 23:32:40;;;;;;;19.35;13.95;;;22.20;99.90;;;;;;14856173;23;20651;-51
